sensor_id;sensor_type;location;lat;lon;timestamp;pressure;altitude;pressure_sealevel;temperature;humidity
68941;BME280;55982;51.476;7.552;2022-08-04T00:00:08;99556.75;;;23.54;63.47
68941;BME280;55982;51.476;7.552;2022-08-04T00:08:00;99546.31;;;23.32;64.66
68941;BME280;55982;51.476;7.552;2022-08-04T00:10:30;99547.66;;;23.27;65.23
68941;BME280;55982;51.476;7.552;2022-08-04T00:12:57;99551.38;;;23.35;64.54
68941;BME280;55982;51.476;7.552;2022-08-04T00:15:25;99542.91;;;23.30;64.79
68941;BME280;55982;51.476;7.552;2022-08-04T00:17:59;99543.19;;;23.27;64.75
68941;BME280;55982;51.476;7.552;2022-08-04T00:20:29;99543.31;;;23.16;65.72
68941;BME280;55982;51.476;7.552;2022-08-04T00:22:57;99550.88;;;23.21;64.98
68941;BME280;55982;51.476;7.552;2022-08-04T00:25:23;99548.78;;;23.15;65.52
68941;BME280;55982;51.476;7.552;2022-08-04T00:27:49;99545.69;;;23.19;65.01
68941;BME280;55982;51.476;7.552;2022-08-04T00:30:15;99548.19;;;23.11;65.42
68941;BME280;55982;51.476;7.552;2022-08-04T00:32:41;99537.53;;;23.21;64.81
68941;BME280;55982;51.476;7.552;2022-08-04T00:35:08;99540.50;;;23.18;65.55
68941;BME280;55982;51.476;7.552;2022-08-04T00:37:36;99540.88;;;23.13;65.08
68941;BME280;55982;51.476;7.552;2022-08-04T00:40:12;99542.31;;;23.17;65.25
68941;BME280;55982;51.476;7.552;2022-08-04T00:43:05;99537.19;;;22.95;66.32
68941;BME280;55982;51.476;7.552;2022-08-04T00:51:12;99535.06;;;22.89;66.70
68941;BME280;55982;51.476;7.552;2022-08-04T01:07:48;99520.66;;;22.41;69.18
68941;BME280;55982;51.476;7.552;2022-08-04T01:10:27;99515.03;;;22.44;68.50
68941;BME280;55982;51.476;7.552;2022-08-04T01:16:04;99515.84;;;22.35;68.87
68941;BME280;55982;51.476;7.552;2022-08-04T01:24:04;99513.59;;;22.30;70.00
68941;BME280;55982;51.476;7.552;2022-08-04T01:29:30;99506.94;;;22.25;69.84
68941;BME280;55982;51.476;7.552;2022-08-04T01:32:00;99509.16;;;22.20;70.16
68941;BME280;55982;51.476;7.552;2022-08-04T01:34:29;99512.34;;;22.14;70.29
68941;BME280;55982;51.476;7.552;2022-08-04T01:37:03;99500.19;;;22.00;71.04
68941;BME280;55982;51.476;7.552;2022-08-04T01:39:34;99502.09;;;21.89;71.74
68941;BME280;55982;51.476;7.552;2022-08-04T01:42:07;99507.41;;;21.89;71.43
68941;BME280;55982;51.476;7.552;2022-08-04T01:44:35;99494.38;;;21.86;71.06
68941;BME280;55982;51.476;7.552;2022-08-04T01:47:01;99502.34;;;21.86;71.08
68941;BME280;55982;51.476;7.552;2022-08-04T01:49:29;99504.03;;;21.87;71.24
68941;BME280;55982;51.476;7.552;2022-08-04T01:51:55;99491.69;;;21.86;71.04
68941;BME280;55982;51.476;7.552;2022-08-04T01:54:22;99493.56;;;21.74;72.01
68941;BME280;55982;51.476;7.552;2022-08-04T01:56:49;99490.31;;;21.70;71.73
68941;BME280;55982;51.476;7.552;2022-08-04T01:59:18;99487.28;;;21.64;71.71
68941;BME280;55982;51.476;7.552;2022-08-04T02:01:43;99487.88;;;21.67;71.99
68941;BME280;55982;51.476;7.552;2022-08-04T02:04:14;99479.94;;;21.56;73.00
68941;BME280;55982;51.476;7.552;2022-08-04T02:07:01;99480.00;;;21.45;73.34
68941;BME280;55982;51.476;7.552;2022-08-04T02:12:12;99472.94;;;21.24;74.68
68941;BME280;55982;51.476;7.552;2022-08-04T02:14:55;99473.31;;;21.19;74.86
68941;BME280;55982;51.476;7.552;2022-08-04T02:17:28;99469.97;;;21.06;75.53
68941;BME280;55982;51.476;7.552;2022-08-04T02:20:07;99460.56;;;20.91;76.24
68941;BME280;55982;51.476;7.552;2022-08-04T02:22:46;99457.28;;;20.87;76.74
68941;BME280;55982;51.476;7.552;2022-08-04T02:25:22;99455.72;;;20.85;77.26
68941;BME280;55982;51.476;7.552;2022-08-04T02:28:17;99451.63;;;20.81;77.83
68941;BME280;55982;51.476;7.552;2022-08-04T02:33:21;99448.25;;;20.68;78.51
68941;BME280;55982;51.476;7.552;2022-08-04T02:35:53;99444.66;;;20.69;78.30
68941;BME280;55982;51.476;7.552;2022-08-04T02:41:09;99444.16;;;20.64;78.94
68941;BME280;55982;51.476;7.552;2022-08-04T02:43:35;99436.66;;;20.58;79.37
68941;BME280;55982;51.476;7.552;2022-08-04T02:46:03;99440.19;;;20.47;80.06
68941;BME280;55982;51.476;7.552;2022-08-04T02:48:31;99429.47;;;20.38;80.77
68941;BME280;55982;51.476;7.552;2022-08-04T02:50:59;99431.63;;;20.33;81.05
68941;BME280;55982;51.476;7.552;2022-08-04T02:53:25;99435.47;;;20.29;81.34
68941;BME280;55982;51.476;7.552;2022-08-04T02:55:53;99423.44;;;20.25;81.48
68941;BME280;55982;51.476;7.552;2022-08-04T02:58:20;99427.50;;;20.29;81.17
68941;BME280;55982;51.476;7.552;2022-08-04T03:00:49;99427.75;;;20.26;81.07
68941;BME280;55982;51.476;7.552;2022-08-04T03:14:11;99424.34;;;20.13;81.56
68941;BME280;55982;51.476;7.552;2022-08-04T03:20:06;99413.47;;;20.04;82.08
68941;BME280;55982;51.476;7.552;2022-08-04T03:39:07;99405.84;;;19.89;82.91
68941;BME280;55982;51.476;7.552;2022-08-04T03:41:53;99405.25;;;19.85;82.80
68941;BME280;55982;51.476;7.552;2022-08-04T03:45:13;99411.78;;;19.92;82.34
68941;BME280;55982;51.476;7.552;2022-08-04T04:01:17;99393.72;;;20.42;78.24
68941;BME280;55982;51.476;7.552;2022-08-04T04:06:44;99399.16;;;20.83;75.49
68941;BME280;55982;51.476;7.552;2022-08-04T04:14:46;99395.13;;;21.31;72.19
68941;BME280;55982;51.476;7.552;2022-08-04T04:23:20;99381.13;;;21.70;70.20
68941;BME280;55982;51.476;7.552;2022-08-04T04:43:00;99386.69;;;22.09;68.64
68941;BME280;55982;51.476;7.552;2022-08-04T04:45:23;99387.41;;;22.11;68.83
68941;BME280;55982;51.476;7.552;2022-08-04T04:48:06;99387.22;;;22.03;69.11
68941;BME280;55982;51.476;7.552;2022-08-04T04:53:26;99390.00;;;22.01;69.13
68941;BME280;55982;51.476;7.552;2022-08-04T04:55:59;99389.88;;;22.03;69.49
68941;BME280;55982;51.476;7.552;2022-08-04T04:58:29;99387.78;;;22.06;68.98
68941;BME280;55982;51.476;7.552;2022-08-04T05:01:33;99389.78;;;22.14;68.65
68941;BME280;55982;51.476;7.552;2022-08-04T05:04:24;99385.88;;;22.18;68.40
68941;BME280;55982;51.476;7.552;2022-08-04T05:12:41;99393.00;;;22.47;67.63
68941;BME280;55982;51.476;7.552;2022-08-04T05:15:13;99390.81;;;22.62;66.71
68941;BME280;55982;51.476;7.552;2022-08-04T05:17:42;99391.41;;;22.75;66.44
68941;BME280;55982;51.476;7.552;2022-08-04T05:20:20;99395.06;;;22.84;66.48
68941;BME280;55982;51.476;7.552;2022-08-04T05:22:53;99386.38;;;22.91;66.44
68941;BME280;55982;51.476;7.552;2022-08-04T05:25:27;99390.47;;;22.95;65.81
68941;BME280;55982;51.476;7.552;2022-08-04T05:30:37;99390.72;;;23.21;65.37
68941;BME280;55982;51.476;7.552;2022-08-04T05:33:13;99391.19;;;23.35;64.11
68941;BME280;55982;51.476;7.552;2022-08-04T05:35:45;99386.41;;;23.48;63.35
68941;BME280;55982;51.476;7.552;2022-08-04T05:38:16;99391.56;;;23.59;62.97
68941;BME280;55982;51.476;7.552;2022-08-04T05:40:42;99391.13;;;23.74;61.97
68941;BME280;55982;51.476;7.552;2022-08-04T05:43:08;99389.13;;;23.85;61.40
68941;BME280;55982;51.476;7.552;2022-08-04T05:45:34;99386.13;;;23.98;61.51
68941;BME280;55982;51.476;7.552;2022-08-04T05:48:04;99382.44;;;24.18;59.68
68941;BME280;55982;51.476;7.552;2022-08-04T05:50:32;99390.97;;;24.31;59.86
68941;BME280;55982;51.476;7.552;2022-08-04T05:52:58;99392.84;;;24.48;58.89
68941;BME280;55982;51.476;7.552;2022-08-04T05:55:26;99381.75;;;24.70;57.59
68941;BME280;55982;51.476;7.552;2022-08-04T05:57:52;99391.25;;;24.82;56.86
68941;BME280;55982;51.476;7.552;2022-08-04T06:00:18;99396.88;;;25.06;56.14
68941;BME280;55982;51.476;7.552;2022-08-04T06:02:46;99397.69;;;25.24;54.85
68941;BME280;55982;51.476;7.552;2022-08-04T06:05:14;99396.47;;;25.36;54.74
68941;BME280;55982;51.476;7.552;2022-08-04T06:07:42;99395.28;;;25.49;53.92
68941;BME280;55982;51.476;7.552;2022-08-04T06:10:07;99402.13;;;25.69;53.68
68941;BME280;55982;51.476;7.552;2022-08-04T06:12:44;99400.56;;;25.84;52.93
68941;BME280;55982;51.476;7.552;2022-08-04T06:15:11;99406.41;;;26.05;52.15
68941;BME280;55982;51.476;7.552;2022-08-04T06:17:48;99398.16;;;26.24;52.02
68941;BME280;55982;51.476;7.552;2022-08-04T06:20:15;99396.72;;;26.46;51.29
68941;BME280;55982;51.476;7.552;2022-08-04T06:22:42;99389.91;;;26.59;50.46
68941;BME280;55982;51.476;7.552;2022-08-04T06:25:12;99384.16;;;26.80;50.49
68941;BME280;55982;51.476;7.552;2022-08-04T06:27:40;99387.72;;;27.04;49.60
68941;BME280;55982;51.476;7.552;2022-08-04T06:30:07;99389.78;;;27.35;48.84
68941;BME280;55982;51.476;7.552;2022-08-04T06:32:41;99389.44;;;27.70;47.92
68941;BME280;55982;51.476;7.552;2022-08-04T06:35:16;99395.97;;;27.99;46.67
68941;BME280;55982;51.476;7.552;2022-08-04T06:37:43;99391.25;;;28.10;46.11
68941;BME280;55982;51.476;7.552;2022-08-04T06:40:14;99390.44;;;28.48;46.41
68941;BME280;55982;51.476;7.552;2022-08-04T06:42:40;99396.44;;;28.66;44.81
68941;BME280;55982;51.476;7.552;2022-08-04T06:45:07;99390.81;;;28.83;44.03
68941;BME280;55982;51.476;7.552;2022-08-04T06:47:36;99396.56;;;29.03;44.10
68941;BME280;55982;51.476;7.552;2022-08-04T06:50:03;99401.94;;;29.03;43.61
68941;BME280;55982;51.476;7.552;2022-08-04T06:52:30;99398.47;;;28.95;44.46
68941;BME280;55982;51.476;7.552;2022-08-04T06:54:55;99401.13;;;29.03;44.10
68941;BME280;55982;51.476;7.552;2022-08-04T06:57:25;99393.03;;;29.33;43.62
68941;BME280;55982;51.476;7.552;2022-08-04T06:59:57;99396.16;;;29.59;43.25
68941;BME280;55982;51.476;7.552;2022-08-04T07:02:25;99402.56;;;29.81;42.22
68941;BME280;55982;51.476;7.552;2022-08-04T07:04:52;99391.72;;;29.89;41.41
68941;BME280;55982;51.476;7.552;2022-08-04T07:07:18;99402.97;;;30.07;41.56
68941;BME280;55982;51.476;7.552;2022-08-04T07:09:43;99396.03;;;30.27;40.62
68941;BME280;55982;51.476;7.552;2022-08-04T07:12:09;99394.41;;;30.77;40.31
68941;BME280;55982;51.476;7.552;2022-08-04T07:14:35;99389.47;;;30.95;39.30
68941;BME280;55982;51.476;7.552;2022-08-04T07:17:05;99393.72;;;31.25;39.31
68941;BME280;55982;51.476;7.552;2022-08-04T07:19:32;99387.88;;;31.64;38.74
68941;BME280;55982;51.476;7.552;2022-08-04T07:21:59;99387.47;;;31.67;38.43
68941;BME280;55982;51.476;7.552;2022-08-04T07:24:30;99383.88;;;31.87;37.56
68941;BME280;55982;51.476;7.552;2022-08-04T07:26:55;99383.69;;;32.16;36.81
68941;BME280;55982;51.476;7.552;2022-08-04T07:29:21;99389.59;;;31.92;37.42
68941;BME280;55982;51.476;7.552;2022-08-04T07:31:48;99379.53;;;32.14;37.66
68941;BME280;55982;51.476;7.552;2022-08-04T07:34:13;99390.63;;;32.25;36.78
68941;BME280;55982;51.476;7.552;2022-08-04T07:36:39;99390.00;;;32.58;37.20
68941;BME280;55982;51.476;7.552;2022-08-04T07:39:04;99387.19;;;32.92;36.66
68941;BME280;55982;51.476;7.552;2022-08-04T07:41:30;99388.59;;;32.75;36.25
68941;BME280;55982;51.476;7.552;2022-08-04T07:43:56;99384.63;;;33.31;36.12
68941;BME280;55982;51.476;7.552;2022-08-04T07:46:22;99385.91;;;33.48;35.38
68941;BME280;55982;51.476;7.552;2022-08-04T07:48:48;99391.94;;;33.70;34.86
68941;BME280;55982;51.476;7.552;2022-08-04T07:51:15;99387.50;;;33.29;34.58
68941;BME280;55982;51.476;7.552;2022-08-04T07:53:41;99391.28;;;33.42;34.83
68941;BME280;55982;51.476;7.552;2022-08-04T07:56:07;99398.84;;;33.85;34.46
68941;BME280;55982;51.476;7.552;2022-08-04T07:58:32;99392.59;;;34.18;34.67
68941;BME280;55982;51.476;7.552;2022-08-04T08:00:58;99394.56;;;34.55;33.27
68941;BME280;55982;51.476;7.552;2022-08-04T08:03:24;99394.25;;;33.92;33.59
68941;BME280;55982;51.476;7.552;2022-08-04T08:05:51;99387.50;;;34.41;33.10
68941;BME280;55982;51.476;7.552;2022-08-04T08:08:16;99403.72;;;34.67;32.73
68941;BME280;55982;51.476;7.552;2022-08-04T08:10:46;99390.69;;;34.82;33.13
68941;BME280;55982;51.476;7.552;2022-08-04T08:13:12;99391.66;;;35.38;32.88
68941;BME280;55982;51.476;7.552;2022-08-04T08:15:38;99386.91;;;35.58;32.13
68941;BME280;55982;51.476;7.552;2022-08-04T08:18:04;99388.75;;;35.33;32.05
68941;BME280;55982;51.476;7.552;2022-08-04T08:20:30;99385.25;;;35.57;31.58
68941;BME280;55982;51.476;7.552;2022-08-04T08:22:57;99385.41;;;36.30;30.69
68941;BME280;55982;51.476;7.552;2022-08-04T08:25:23;99389.94;;;36.18;30.41
68941;BME280;55982;51.476;7.552;2022-08-04T08:27:48;99390.28;;;36.82;29.30
68941;BME280;55982;51.476;7.552;2022-08-04T08:30:14;99392.91;;;37.07;30.06
68941;BME280;55982;51.476;7.552;2022-08-04T08:32:39;99391.34;;;36.27;29.12
68941;BME280;55982;51.476;7.552;2022-08-04T08:35:05;99389.47;;;36.03;29.38
68941;BME280;55982;51.476;7.552;2022-08-04T08:37:44;99394.28;;;36.25;31.65
68941;BME280;55982;51.476;7.552;2022-08-04T08:40:26;99397.72;;;36.75;29.45
68941;BME280;55982;51.476;7.552;2022-08-04T08:51:06;99391.25;;;38.00;27.27
68941;BME280;55982;51.476;7.552;2022-08-04T09:00:01;99389.19;;;38.53;27.72
68941;BME280;55982;51.476;7.552;2022-08-04T09:10:53;99384.16;;;38.73;25.73
68941;BME280;55982;51.476;7.552;2022-08-04T09:13:40;99374.72;;;39.20;24.46
68941;BME280;55982;51.476;7.552;2022-08-04T09:16:40;99380.56;;;38.84;25.37
68941;BME280;55982;51.476;7.552;2022-08-04T09:19:16;99384.91;;;37.65;27.16
68941;BME280;55982;51.476;7.552;2022-08-04T09:21:52;99378.53;;;38.17;28.03
68941;BME280;55982;51.476;7.552;2022-08-04T09:28:09;99382.25;;;38.62;24.83
68941;BME280;55982;51.476;7.552;2022-08-04T09:30:42;99380.53;;;39.41;25.51
68941;BME280;55982;51.476;7.552;2022-08-04T09:33:41;99371.63;;;39.95;23.90
68941;BME280;55982;51.476;7.552;2022-08-04T09:36:59;99373.50;;;39.00;24.50
68941;BME280;55982;51.476;7.552;2022-08-04T09:39:28;99372.72;;;39.04;25.21
68941;BME280;55982;51.476;7.552;2022-08-04T09:44:54;99366.22;;;38.66;25.14
68941;BME280;55982;51.476;7.552;2022-08-04T09:47:24;99370.78;;;39.78;24.00
68941;BME280;55982;51.476;7.552;2022-08-04T09:53:02;99361.41;;;40.45;23.68
68941;BME280;55982;51.476;7.552;2022-08-04T09:58:51;99366.00;;;39.52;23.50
68941;BME280;55982;51.476;7.552;2022-08-04T10:01:20;99360.53;;;40.61;21.84
68941;BME280;55982;51.476;7.552;2022-08-04T10:03:56;99351.44;;;40.39;22.32
68941;BME280;55982;51.476;7.552;2022-08-04T10:06:44;99358.66;;;40.67;23.39
68941;BME280;55982;51.476;7.552;2022-08-04T10:19:55;99358.44;;;40.30;21.71
68941;BME280;55982;51.476;7.552;2022-08-04T10:22:32;99362.59;;;40.76;22.39
68941;BME280;55982;51.476;7.552;2022-08-04T10:25:32;99359.75;;;41.41;20.42
68941;BME280;55982;51.476;7.552;2022-08-04T10:28:10;99365.53;;;40.91;20.65
68941;BME280;55982;51.476;7.552;2022-08-04T10:30:38;99365.09;;;40.77;19.89
68941;BME280;55982;51.476;7.552;2022-08-04T10:33:22;99371.28;;;41.38;20.90
68941;BME280;55982;51.476;7.552;2022-08-04T10:36:06;99366.88;;;40.88;20.47
68941;BME280;55982;51.476;7.552;2022-08-04T10:38:44;99364.63;;;41.07;22.01
68941;BME280;55982;51.476;7.552;2022-08-04T10:44:27;99368.44;;;40.79;20.21
68941;BME280;55982;51.476;7.552;2022-08-04T10:47:18;99361.44;;;41.42;19.57
68941;BME280;55982;51.476;7.552;2022-08-04T10:49:54;99368.88;;;41.20;20.03
68941;BME280;55982;51.476;7.552;2022-08-04T10:52:37;99363.59;;;40.86;19.64
68941;BME280;55982;51.476;7.552;2022-08-04T10:55:21;99366.06;;;41.15;18.75
68941;BME280;55982;51.476;7.552;2022-08-04T11:00:22;99357.78;;;41.63;18.50
68941;BME280;55982;51.476;7.552;2022-08-04T11:03:00;99353.75;;;41.17;19.95
68941;BME280;55982;51.476;7.552;2022-08-04T11:05:54;99356.44;;;40.42;21.10
68941;BME280;55982;51.476;7.552;2022-08-04T11:08:24;99357.41;;;39.03;22.11
68941;BME280;55982;51.476;7.552;2022-08-04T11:16:57;99371.06;;;38.75;22.80
68941;BME280;55982;51.476;7.552;2022-08-04T11:22:08;99365.72;;;37.83;24.53
68941;BME280;55982;51.476;7.552;2022-08-04T11:24:47;99377.09;;;37.80;25.90
68941;BME280;55982;51.476;7.552;2022-08-04T11:27:18;99384.34;;;38.32;23.61
68941;BME280;55982;51.476;7.552;2022-08-04T11:30:06;99380.75;;;40.17;22.08
68941;BME280;55982;51.476;7.552;2022-08-04T11:36:07;99379.72;;;41.95;20.76
68941;BME280;55982;51.476;7.552;2022-08-04T11:41:25;99383.28;;;40.40;22.95
68941;BME280;55982;51.476;7.552;2022-08-04T11:43:59;99386.34;;;39.27;25.64
68941;BME280;55982;51.476;7.552;2022-08-04T11:46:31;99399.81;;;39.46;24.08
68941;BME280;55982;51.476;7.552;2022-08-04T11:49:07;99392.34;;;40.24;22.58
68941;BME280;55982;51.476;7.552;2022-08-04T11:51:36;99399.19;;;40.81;22.93
68941;BME280;55982;51.476;7.552;2022-08-04T11:54:02;99393.03;;;41.71;21.64
68941;BME280;55982;51.476;7.552;2022-08-04T11:56:29;99389.00;;;41.83;21.13
68941;BME280;55982;51.476;7.552;2022-08-04T11:58:57;99394.66;;;40.70;22.08
68941;BME280;55982;51.476;7.552;2022-08-04T12:01:37;99400.25;;;40.37;23.32
68941;BME280;55982;51.476;7.552;2022-08-04T12:07:05;99418.78;;;40.13;22.67
68941;BME280;55982;51.476;7.552;2022-08-04T12:09:43;99409.88;;;40.23;22.84
68941;BME280;55982;51.476;7.552;2022-08-04T12:12:12;99415.47;;;40.88;22.67
68941;BME280;55982;51.476;7.552;2022-08-04T12:15:11;99423.50;;;40.51;23.52
68941;BME280;55982;51.476;7.552;2022-08-04T12:18:09;99420.13;;;38.65;24.55
68941;BME280;55982;51.476;7.552;2022-08-04T12:20:42;99420.63;;;37.63;26.72
68941;BME280;55982;51.476;7.552;2022-08-04T12:23:24;99421.47;;;37.64;26.06
68941;BME280;55982;51.476;7.552;2022-08-04T12:25:53;99428.66;;;38.11;25.53
68941;BME280;55982;51.476;7.552;2022-08-04T12:28:34;99419.78;;;39.58;24.00
68941;BME280;55982;51.476;7.552;2022-08-04T12:31:19;99427.38;;;40.55;23.08
68941;BME280;55982;51.476;7.552;2022-08-04T12:33:54;99425.25;;;39.91;23.70
68941;BME280;55982;51.476;7.552;2022-08-04T12:36:28;99426.50;;;38.82;25.77
68941;BME280;55982;51.476;7.552;2022-08-04T12:39:08;99431.75;;;38.72;25.42
68941;BME280;55982;51.476;7.552;2022-08-04T12:42:01;99416.09;;;37.57;27.08
68941;BME280;55982;51.476;7.552;2022-08-04T12:44:36;99428.09;;;36.79;29.33
68941;BME280;55982;51.476;7.552;2022-08-04T12:47:08;99417.00;;;36.19;29.63
68941;BME280;55982;51.476;7.552;2022-08-04T12:49:34;99414.47;;;35.37;31.10
68941;BME280;55982;51.476;7.552;2022-08-04T12:52:05;99415.75;;;35.35;32.88
68941;BME280;55982;51.476;7.552;2022-08-04T12:54:32;99422.06;;;35.29;30.74
68941;BME280;55982;51.476;7.552;2022-08-04T12:57:00;99423.78;;;34.66;32.74
68941;BME280;55982;51.476;7.552;2022-08-04T12:59:25;99419.50;;;34.26;34.05
68941;BME280;55982;51.476;7.552;2022-08-04T13:01:52;99420.50;;;34.38;32.80
68941;BME280;55982;51.476;7.552;2022-08-04T13:04:22;99420.09;;;34.41;33.73
68941;BME280;55982;51.476;7.552;2022-08-04T13:06:54;99424.03;;;35.15;33.97
68941;BME280;55982;51.476;7.552;2022-08-04T13:09:22;99417.47;;;35.85;34.31
68941;BME280;55982;51.476;7.552;2022-08-04T13:11:53;99403.91;;;37.59;31.51
68941;BME280;55982;51.476;7.552;2022-08-04T13:14:20;99405.28;;;38.89;27.99
68941;BME280;55982;51.476;7.552;2022-08-04T13:16:47;99403.97;;;38.06;28.17
68941;BME280;55982;51.476;7.552;2022-08-04T13:19:20;99411.22;;;36.52;30.18
68941;BME280;55982;51.476;7.552;2022-08-04T13:21:46;99406.16;;;35.63;31.49
68941;BME280;55982;51.476;7.552;2022-08-04T13:24:14;99403.13;;;35.09;32.71
68941;BME280;55982;51.476;7.552;2022-08-04T13:26:58;99409.69;;;34.25;34.83
68941;BME280;55982;51.476;7.552;2022-08-04T13:29:38;99411.72;;;34.49;33.42
68941;BME280;55982;51.476;7.552;2022-08-04T13:32:05;99418.34;;;34.79;34.11
68941;BME280;55982;51.476;7.552;2022-08-04T13:34:34;99412.97;;;34.53;35.52
68941;BME280;55982;51.476;7.552;2022-08-04T13:37:01;99420.09;;;34.41;35.27
68941;BME280;55982;51.476;7.552;2022-08-04T13:39:27;99418.81;;;34.63;34.84
68941;BME280;55982;51.476;7.552;2022-08-04T13:41:54;99415.56;;;33.82;36.67
68941;BME280;55982;51.476;7.552;2022-08-04T13:44:29;99419.25;;;34.40;36.12
68941;BME280;55982;51.476;7.552;2022-08-04T13:47:00;99419.47;;;34.52;35.32
68941;BME280;55982;51.476;7.552;2022-08-04T13:49:27;99421.75;;;34.55;35.11
68941;BME280;55982;51.476;7.552;2022-08-04T13:51:55;99427.88;;;34.04;36.74
68941;BME280;55982;51.476;7.552;2022-08-04T13:54:22;99425.16;;;34.18;35.98
68941;BME280;55982;51.476;7.552;2022-08-04T13:56:51;99417.22;;;33.57;37.57
68941;BME280;55982;51.476;7.552;2022-08-04T13:59:22;99415.28;;;33.25;38.62
68941;BME280;55982;51.476;7.552;2022-08-04T14:01:58;99419.66;;;33.19;38.54
68941;BME280;55982;51.476;7.552;2022-08-04T14:04:26;99415.19;;;32.52;40.17
68941;BME280;55982;51.476;7.552;2022-08-04T14:07:05;99415.06;;;32.73;41.15
68941;BME280;55982;51.476;7.552;2022-08-04T14:09:37;99412.88;;;32.21;40.51
68941;BME280;55982;51.476;7.552;2022-08-04T14:12:11;99415.81;;;33.01;39.33
68941;BME280;55982;51.476;7.552;2022-08-04T14:14:55;99413.88;;;33.75;37.59
68941;BME280;55982;51.476;7.552;2022-08-04T14:17:25;99415.13;;;33.72;38.03
68941;BME280;55982;51.476;7.552;2022-08-04T14:19:52;99414.00;;;32.74;40.31
68941;BME280;55982;51.476;7.552;2022-08-04T14:27:24;99413.84;;;33.49;38.94
68941;BME280;55982;51.476;7.552;2022-08-04T14:29:50;99414.03;;;33.34;39.01
68941;BME280;55982;51.476;7.552;2022-08-04T14:32:15;99421.75;;;33.37;39.08
68941;BME280;55982;51.476;7.552;2022-08-04T14:34:43;99409.25;;;34.41;37.50
68941;BME280;55982;51.476;7.552;2022-08-04T14:37:10;99411.06;;;35.17;36.14
68941;BME280;55982;51.476;7.552;2022-08-04T14:39:45;99416.16;;;34.94;36.52
68941;BME280;55982;51.476;7.552;2022-08-04T14:42:14;99417.16;;;34.62;37.62
68941;BME280;55982;51.476;7.552;2022-08-04T14:44:56;99412.84;;;33.82;38.44
68941;BME280;55982;51.476;7.552;2022-08-04T14:50:04;99418.00;;;34.43;37.31
68941;BME280;55982;51.476;7.552;2022-08-04T14:52:30;99415.09;;;34.38;37.39
68941;BME280;55982;51.476;7.552;2022-08-04T14:54:55;99414.94;;;34.06;37.79
68941;BME280;55982;51.476;7.552;2022-08-04T14:57:20;99405.13;;;33.73;38.54
68941;BME280;55982;51.476;7.552;2022-08-04T14:59:48;99407.56;;;33.28;40.50
68941;BME280;55982;51.476;7.552;2022-08-04T15:02:15;99410.31;;;32.88;40.94
68941;BME280;55982;51.476;7.552;2022-08-04T15:04:41;99406.31;;;32.36;42.62
68941;BME280;55982;51.476;7.552;2022-08-04T15:07:08;99406.47;;;32.63;41.46
68941;BME280;55982;51.476;7.552;2022-08-04T15:09:34;99404.28;;;31.83;43.79
68941;BME280;55982;51.476;7.552;2022-08-04T15:12:01;99402.06;;;31.93;44.09
68941;BME280;55982;51.476;7.552;2022-08-04T15:14:28;99404.19;;;31.77;45.47
68941;BME280;55982;51.476;7.552;2022-08-04T15:16:54;99398.75;;;31.49;43.69
68941;BME280;55982;51.476;7.552;2022-08-04T15:19:20;99395.91;;;31.36;44.51
68941;BME280;55982;51.476;7.552;2022-08-04T15:21:46;99397.38;;;31.17;45.71
68941;BME280;55982;51.476;7.552;2022-08-04T15:24:12;99402.31;;;31.49;43.63
68941;BME280;55982;51.476;7.552;2022-08-04T15:26:48;99405.22;;;31.12;45.04
68941;BME280;55982;51.476;7.552;2022-08-04T15:29:17;99401.06;;;31.10;45.47
68941;BME280;55982;51.476;7.552;2022-08-04T15:31:45;99397.06;;;31.06;45.49
68941;BME280;55982;51.476;7.552;2022-08-04T15:34:12;99389.59;;;31.08;45.52
68941;BME280;55982;51.476;7.552;2022-08-04T15:36:52;99392.63;;;30.84;47.38
68941;BME280;55982;51.476;7.552;2022-08-04T15:39:27;99393.28;;;30.86;46.81
68941;BME280;55982;51.476;7.552;2022-08-04T15:47:16;99390.69;;;30.63;47.01
68941;BME280;55982;51.476;7.552;2022-08-04T15:49:43;99393.69;;;30.53;46.20
68941;BME280;55982;51.476;7.552;2022-08-04T15:52:13;99390.50;;;30.64;46.47
68941;BME280;55982;51.476;7.552;2022-08-04T15:54:42;99393.69;;;30.53;46.52
68941;BME280;55982;51.476;7.552;2022-08-04T15:57:08;99397.97;;;30.48;47.61
68941;BME280;55982;51.476;7.552;2022-08-04T16:02:37;99406.38;;;30.38;47.34
68941;BME280;55982;51.476;7.552;2022-08-04T16:08:10;99410.06;;;30.37;47.51
68941;BME280;55982;51.476;7.552;2022-08-04T16:10:38;99410.84;;;30.31;47.33
68941;BME280;55982;51.476;7.552;2022-08-04T16:13:06;99415.66;;;30.21;48.25
68941;BME280;55982;51.476;7.552;2022-08-04T16:20:57;99408.88;;;30.40;46.61
68941;BME280;55982;51.476;7.552;2022-08-04T16:26:07;99403.88;;;30.37;45.50
68941;BME280;55982;51.476;7.552;2022-08-04T16:28:40;99407.81;;;30.26;46.69
68941;BME280;55982;51.476;7.552;2022-08-04T16:31:10;99406.56;;;30.37;45.81
68941;BME280;55982;51.476;7.552;2022-08-04T16:33:37;99408.81;;;30.33;45.31
68941;BME280;55982;51.476;7.552;2022-08-04T16:36:06;99412.28;;;30.19;45.52
68941;BME280;55982;51.476;7.552;2022-08-04T16:39:01;99409.53;;;30.27;45.28
68941;BME280;55982;51.476;7.552;2022-08-04T16:41:42;99414.03;;;29.83;47.12
68941;BME280;55982;51.476;7.552;2022-08-04T16:44:29;99416.94;;;29.51;47.74
68941;BME280;55982;51.476;7.552;2022-08-04T16:46:56;99425.78;;;29.45;47.69
68941;BME280;55982;51.476;7.552;2022-08-04T16:49:22;99424.28;;;29.20;49.32
68941;BME280;55982;51.476;7.552;2022-08-04T16:51:48;99416.84;;;29.22;47.75
68941;BME280;55982;51.476;7.552;2022-08-04T16:54:14;99421.00;;;29.02;49.27
68941;BME280;55982;51.476;7.552;2022-08-04T16:56:39;99416.78;;;28.99;49.16
68941;BME280;55982;51.476;7.552;2022-08-04T16:59:10;99414.94;;;29.00;49.03
68941;BME280;55982;51.476;7.552;2022-08-04T17:01:37;99420.06;;;28.86;50.46
68941;BME280;55982;51.476;7.552;2022-08-04T17:04:03;99408.38;;;28.71;50.14
68941;BME280;55982;51.476;7.552;2022-08-04T17:06:36;99399.22;;;28.80;51.16
68941;BME280;55982;51.476;7.552;2022-08-04T17:09:09;99414.22;;;29.14;49.83
68941;BME280;55982;51.476;7.552;2022-08-04T17:11:35;99422.59;;;29.19;49.96